createdAt,value
2018-12-29T00:01:12.134Z,101722.88
2018-12-29T00:03:41.473Z,101722.41
2018-12-29T00:06:09.507Z,101715.94
2018-12-29T00:08:37.896Z,101712.42
2018-12-29T00:11:05.917Z,101713.34
2018-12-29T00:13:33.942Z,101708.99
2018-12-29T00:16:02.009Z,101727.45
2018-12-29T00:18:31.286Z,101743.38
2018-12-29T00:20:59.798Z,101733.75
2018-12-29T00:23:27.804Z,101733.75
2018-12-29T00:25:55.820Z,101733.75
2018-12-29T00:28:23.911Z,101735.42
2018-12-29T00:30:52.194Z,101730.78
2018-12-29T00:33:20.181Z,101736.16
2018-12-29T00:35:48.214Z,101740.09
2018-12-29T00:38:16.709Z,101734.55
2018-12-29T00:40:44.734Z,101738.28
2018-12-29T00:43:12.815Z,101744.67
2018-12-29T00:45:45.462Z,101730.78
2018-12-29T00:48:13.490Z,101741.90
2018-12-29T00:50:41.507Z,101733.38
2018-12-29T00:53:09.480Z,101735.05
2018-12-29T00:55:37.501Z,101741.06
2018-12-29T00:58:07.207Z,101747.09
2018-12-29T01:00:35.240Z,101756.02
2018-12-29T01:03:03.549Z,101764.16
2018-12-29T01:05:33.014Z,101765.09
2018-12-29T01:08:01.514Z,101772.92
2018-12-29T01:10:29.586Z,101770.42
2018-12-29T01:12:57.689Z,101771.58
2018-12-29T01:15:25.754Z,101782.50
2018-12-29T01:17:53.664Z,101777.69
2018-12-29T01:20:21.739Z,101782.81
2018-12-29T01:22:49.742Z,101777.08
2018-12-29T01:25:17.762Z,101783.94
2018-12-29T01:27:45.839Z,101786.70
2018-12-29T01:30:14.181Z,101785.55
2018-12-29T01:32:42.190Z,101797.31
2018-12-29T01:35:10.237Z,101807.77
2018-12-29T01:37:38.293Z,101814.06
2018-12-29T01:40:07.335Z,101803.70
2018-12-29T01:42:35.309Z,101800.19
2018-12-29T01:45:03.925Z,101804.16
2018-12-29T01:47:31.943Z,101805.00
2018-12-29T01:49:59.947Z,101813.14
2018-12-29T01:52:27.977Z,101800.50
2018-12-29T01:54:55.981Z,101792.73
2018-12-29T01:57:24.011Z,101790.41
2018-12-29T01:59:52.324Z,101788.57
2018-12-29T02:02:20.647Z,101786.75
2018-12-29T02:04:48.934Z,101781.94
2018-12-29T02:07:17.379Z,101781.76
2018-12-29T02:09:45.428Z,101771.39
2018-12-29T02:12:14.572Z,101776.48
2018-12-29T02:14:42.842Z,101782.45
2018-12-29T02:17:10.896Z,101773.00
2018-12-29T02:19:39.249Z,101766.89
2018-12-29T02:22:07.277Z,101762.91
2018-12-29T02:24:35.879Z,101761.98
2018-12-29T02:27:03.920Z,101762.22
2018-12-29T02:29:32.071Z,101771.94
2018-12-29T02:32:00.107Z,101772.55
2018-12-29T02:34:28.096Z,101763.94
2018-12-29T02:36:56.114Z,101761.06
2018-12-29T02:39:24.444Z,101767.17
2018-12-29T02:41:52.716Z,101759.86
2018-12-29T02:44:20.786Z,101751.53
2018-12-29T02:46:49.349Z,101754.41
2018-12-29T02:49:17.363Z,101759.06
2018-12-29T02:51:45.743Z,101756.39
2018-12-29T02:54:13.760Z,101750.19
2018-12-29T02:56:41.790Z,101742.13
2018-12-29T02:59:09.815Z,101748.70
2018-12-29T03:01:39.055Z,101756.47
2018-12-29T03:04:07.071Z,101764.63
2018-12-29T03:06:35.085Z,101761.20
2018-12-29T03:09:04.975Z,101751.75
2018-12-29T03:11:34.117Z,101762.27
2018-12-29T03:14:02.130Z,101761.98
2018-12-29T03:16:30.695Z,101763.28
2018-12-29T03:18:58.697Z,101769.30
2018-12-29T03:21:26.749Z,101768.00
2018-12-29T03:23:54.725Z,101769.67
2018-12-29T03:26:22.696Z,101763.48
2018-12-29T03:28:50.735Z,101774.16
2018-12-29T03:31:20.063Z,101783.23
2018-12-29T03:33:48.044Z,101788.05
2018-12-29T03:36:16.021Z,101784.53
2018-12-29T03:38:44.346Z,101776.75
2018-12-29T03:41:12.335Z,101779.34
2018-12-29T03:43:41.329Z,101778.52
2018-12-29T03:46:09.331Z,101783.23
2018-12-29T03:48:37.329Z,101774.62
2018-12-29T03:51:05.310Z,101783.61
2018-12-29T03:53:33.883Z,101784.91
2018-12-29T03:56:02.295Z,101782.31
2018-12-29T03:58:30.349Z,101773.61
2018-12-29T04:00:58.377Z,101770.18
2018-12-29T04:03:26.431Z,101768.80
2018-12-29T04:05:54.354Z,101767.03
2018-12-29T04:08:22.404Z,101767.88
2018-12-29T04:10:50.762Z,101764.36
2018-12-29T04:13:19.048Z,101760.41
2018-12-29T04:15:47.040Z,101751.70
2018-12-29T04:18:15.085Z,101751.61
2018-12-29T04:20:43.101Z,101747.72
2018-12-29T04:23:11.112Z,101749.86
2018-12-29T04:25:39.122Z,101750.23
2018-12-29T04:28:07.211Z,101749.30
2018-12-29T04:30:35.227Z,101747.95
2018-12-29T04:33:04.360Z,101740.16
2018-12-29T04:35:34.061Z,101735.34
2018-12-29T04:38:04.683Z,101733.22
2018-12-29T04:40:32.693Z,101745.81
2018-12-29T04:43:00.984Z,101738.92
2018-12-29T04:45:28.970Z,101744.98
2018-12-29T04:47:57.621Z,101753.59
2018-12-29T04:50:25.909Z,101769.52
2018-12-29T04:52:53.749Z,101767.77
2018-12-29T04:55:21.754Z,101761.66
2018-12-29T04:57:49.739Z,101768.51
2018-12-29T05:00:17.753Z,101772.03
2018-12-29T05:02:46.013Z,101772.49
2018-12-29T05:05:14.331Z,101781.10
2018-12-29T05:07:42.331Z,101779.34
2018-12-29T05:10:10.361Z,101773.33
2018-12-29T05:12:38.621Z,101781.10
2018-12-29T05:15:06.682Z,101782.95
2018-12-29T05:17:34.663Z,101788.60
2018-12-29T05:20:03.229Z,101792.09
2018-12-29T05:22:31.200Z,101792.64
2018-12-29T05:24:59.206Z,101791.89
2018-12-29T05:27:27.181Z,101794.95
2018-12-29T05:29:55.217Z,101797.17
2018-12-29T05:32:23.178Z,101798.06
2018-12-29T05:34:51.292Z,101790.75
2018-12-29T05:37:19.565Z,101796.39
2018-12-29T05:39:47.559Z,101803.25
2018-12-29T05:42:15.553Z,101806.30
2018-12-29T05:44:43.565Z,101812.33
2018-12-29T05:47:11.834Z,101816.30
2018-12-29T05:49:39.855Z,101815.47
2018-12-29T05:52:07.839Z,101820.66
2018-12-29T05:54:35.854Z,101819.82
2018-12-29T05:57:03.871Z,101827.69
2018-12-29T05:59:31.884Z,101825.47
2018-12-29T06:01:59.889Z,101827.23
2018-12-29T06:04:27.909Z,101823.89
2018-12-29T06:06:55.888Z,101829.13
2018-12-29T06:09:23.900Z,101829.97
2018-12-29T06:11:52.193Z,101823.05
2018-12-29T06:14:20.168Z,101826.48
2018-12-29T06:16:48.147Z,101827.31
2018-12-29T06:19:16.477Z,101827.69
2018-12-29T06:21:44.449Z,101826.02
2018-12-29T06:24:12.543Z,101825.64
2018-12-29T06:26:40.766Z,101822.65
2018-12-29T06:29:09.004Z,101825.50
2018-12-29T06:31:36.997Z,101821.70
2018-12-29T06:34:05.010Z,101822.59
2018-12-29T06:36:33.024Z,101830.77
2018-12-29T06:39:04.192Z,101830.77
2018-12-29T06:41:32.186Z,101827.26
2018-12-29T06:44:00.212Z,101830.92
2018-12-29T06:46:34.721Z,101831.47
2018-12-29T06:48:58.559Z,101834.06
2018-12-29T06:51:26.861Z,101829.80
2018-12-29T06:53:55.148Z,101840.17
2018-12-29T06:56:24.253Z,101837.72
2018-12-29T06:58:53.269Z,101836.97
2018-12-29T07:01:21.431Z,101839.70
2018-12-29T07:03:49.741Z,101838.20
2018-12-29T07:06:17.799Z,101833.94
2018-12-29T07:08:45.815Z,101836.16
2018-12-29T07:11:14.804Z,101829.36
2018-12-29T07:13:42.954Z,101840.73
2018-12-29T07:16:10.963Z,101839.12
2018-12-29T07:18:38.985Z,101837.53
2018-12-29T07:21:07.012Z,101829.52
2018-12-29T07:23:34.986Z,101833.41
2018-12-29T07:26:05.663Z,101845.91
2018-12-29T07:28:33.717Z,101845.48
2018-12-29T07:31:01.740Z,101849.73
2018-12-29T07:33:30.882Z,101849.42
2018-12-29T07:35:58.899Z,101853.67
2018-12-29T07:38:26.941Z,101849.50
2018-12-29T07:40:54.905Z,101857.27
2018-12-29T07:43:22.918Z,101867.18
2018-12-29T07:45:50.922Z,101868.84
2018-12-29T07:48:19.305Z,101872.27
2018-12-29T07:50:47.326Z,101868.80
2018-12-29T07:53:15.335Z,101873.98
2018-12-29T07:55:44.302Z,101889.53
2018-12-29T07:58:12.312Z,101889.91
2018-12-29T08:00:40.313Z,101904.45
2018-12-29T08:03:08.589Z,101900.48
2018-12-29T08:05:36.616Z,101895.98
2018-12-29T08:08:05.058Z,101892.39
2018-12-29T08:10:33.042Z,101900.55
2018-12-29T08:13:01.354Z,101903.45
2018-12-29T08:15:29.619Z,101895.97
2018-12-29T08:17:57.613Z,101888.95
2018-12-29T08:20:25.609Z,101885.47
2018-12-29T08:22:53.887Z,101894.13
2018-12-29T08:25:21.869Z,101890.19
2018-12-29T08:27:50.173Z,101893.53
2018-12-29T08:30:18.186Z,101901.23
2018-12-29T08:32:46.236Z,101911.45
2018-12-29T08:35:14.253Z,101908.69
2018-12-29T08:37:42.502Z,101906.94
2018-12-29T08:40:10.547Z,101912.12
2018-12-29T08:42:38.800Z,101915.63
2018-12-29T08:45:06.824Z,101924.79
2018-12-29T08:47:34.850Z,101923.03
2018-12-29T08:50:04.151Z,101929.43
2018-12-29T08:52:33.171Z,101925.41
2018-12-29T08:55:01.290Z,101929.20
2018-12-29T08:57:29.314Z,101928.20
2018-12-29T08:59:57.718Z,101933.25
2018-12-29T09:02:25.707Z,101933.45
2018-12-29T09:04:53.716Z,101932.06
2018-12-29T09:07:21.785Z,101933.59
2018-12-29T09:09:49.860Z,101936.25
2018-12-29T09:12:18.158Z,101942.34
2018-12-29T09:14:46.180Z,101948.96
2018-12-29T09:17:14.188Z,101940.95
2018-12-29T09:19:42.174Z,101947.86
2018-12-29T09:22:10.182Z,101944.95
2018-12-29T09:24:38.206Z,101948.80
2018-12-29T09:27:06.302Z,101944.88
2018-12-29T09:29:34.641Z,101947.52
2018-12-29T09:32:03.539Z,101949.31
2018-12-29T09:34:31.855Z,101947.69
2018-12-29T09:36:59.918Z,101947.02
2018-12-29T09:39:28.006Z,101948.81
2018-12-29T09:41:55.999Z,101949.78
2018-12-29T09:44:24.174Z,101950.19
2018-12-29T09:46:52.222Z,101946.41
2018-12-29T09:49:20.281Z,101943.13
2018-12-29T09:51:48.436Z,101938.74
2018-12-29T09:54:16.446Z,101940.50
2018-12-29T09:56:44.808Z,101941.65
2018-12-29T09:59:13.263Z,101940.44
2018-12-29T10:01:41.302Z,101940.44
2018-12-29T10:04:09.316Z,101939.52
2018-12-29T10:06:37.354Z,101932.47
2018-12-29T10:09:06.468Z,101929.13
2018-12-29T10:11:34.472Z,101929.13
2018-12-29T10:14:02.465Z,101925.35
2018-12-29T10:16:30.473Z,101921.73
2018-12-29T10:18:58.455Z,101923.19
2018-12-29T10:21:26.469Z,101927.08
2018-12-29T10:23:54.590Z,101929.44
2018-12-29T10:26:22.608Z,101915.36
2018-12-29T10:28:50.652Z,101915.02
2018-12-29T10:31:18.642Z,101913.72
2018-12-29T10:33:46.628Z,101917.98
2018-12-29T10:36:14.724Z,101915.48
2018-12-29T10:38:43.021Z,101915.50
2018-12-29T10:41:11.310Z,101920.98
2018-12-29T10:43:41.202Z,101919.12
2018-12-29T10:46:09.407Z,101911.16
2018-12-29T10:48:40.537Z,101913.77
2018-12-29T10:51:08.854Z,101907.73
2018-12-29T10:53:40.371Z,101907.42
2018-12-29T10:56:08.832Z,101893.90
2018-12-29T10:58:37.167Z,101904.84
2018-12-29T11:01:05.734Z,101905.61
2018-12-29T11:03:35.533Z,101900.78
2018-12-29T11:06:04.312Z,101888.43
2018-12-29T11:08:33.025Z,101891.05
2018-12-29T11:11:01.335Z,101892.73
2018-12-29T11:13:29.607Z,101897.00
2018-12-29T11:15:57.882Z,101897.00
2018-12-29T11:18:25.840Z,101898.57
2018-12-29T11:20:54.055Z,101892.53
2018-12-29T11:23:22.328Z,101899.59
2018-12-29T11:25:50.418Z,101898.57
2018-12-29T11:28:18.670Z,101899.59
2018-12-29T11:30:47.685Z,101893.63
2018-12-29T11:33:15.793Z,101887.13
2018-12-29T11:35:43.891Z,101878.03
2018-12-29T11:38:11.860Z,101875.16
2018-12-29T11:40:39.965Z,101876.73
2018-12-29T11:43:08.626Z,101869.34
2018-12-29T11:45:36.683Z,101866.91
2018-12-29T11:48:05.392Z,101851.98
2018-12-29T11:50:33.411Z,101844.55
2018-12-29T11:53:01.553Z,101836.39
2018-12-29T11:55:29.698Z,101840.28
2018-12-29T11:57:58.474Z,101829.78
2018-12-29T12:00:26.659Z,101824.95
2018-12-29T12:02:56.055Z,101822.82
2018-12-29T12:05:24.118Z,101824.22
2018-12-29T12:07:52.515Z,101827.82
2018-12-29T12:10:21.354Z,101827.82
2018-12-29T12:12:49.466Z,101813.35
2018-12-29T12:15:17.487Z,101813.98
2018-12-29T12:17:45.895Z,101821.61
2018-12-29T12:20:13.893Z,101819.64
2018-12-29T12:22:42.130Z,101813.52
2018-12-29T12:25:10.170Z,101812.05
2018-12-29T12:27:38.378Z,101820.58
2018-12-29T12:30:07.502Z,101816.68
2018-12-29T12:32:35.966Z,101816.12
2018-12-29T12:35:04.422Z,101824.95
2018-12-29T12:37:32.599Z,101825.05
2018-12-29T12:40:01.190Z,101817.63
2018-12-29T12:42:29.247Z,101810.29
2018-12-29T12:44:57.331Z,101821.52
2018-12-29T12:47:25.342Z,101821.89
2018-12-29T12:49:53.419Z,101810.92
2018-12-29T12:52:22.007Z,101815.66
2018-12-29T12:54:51.067Z,101828.22
2018-12-29T12:57:19.467Z,101823.66
2018-12-29T12:59:47.915Z,101813.92
2018-12-29T13:02:15.978Z,101811.23
2018-12-29T13:04:44.121Z,101797.02
2018-12-29T13:07:12.266Z,101784.92
2018-12-29T13:09:40.476Z,101785.95
2018-12-29T13:12:08.649Z,101775.56
2018-12-29T13:14:36.705Z,101769.70
2018-12-29T13:17:05.035Z,101773.43
2018-12-29T13:19:33.451Z,101778.80
2018-12-29T13:22:01.453Z,101772.23
2018-12-29T13:24:29.318Z,101762.09
2018-12-29T13:26:57.393Z,101751.61
2018-12-29T13:29:25.604Z,101739.17
2018-12-29T13:31:53.957Z,101728.12
2018-12-29T13:34:22.231Z,101724.78
2018-12-29T13:36:50.312Z,101740.38
2018-12-29T13:39:18.328Z,101737.67
2018-12-29T13:41:46.337Z,101713.29
2018-12-29T13:44:15.235Z,101725.98
2018-12-29T13:46:43.234Z,101725.98
2018-12-29T13:49:11.235Z,101724.22
2018-12-29T13:51:39.370Z,101717.35
2018-12-29T13:54:08.018Z,101714.59
2018-12-29T13:56:36.116Z,101714.59
2018-12-29T13:59:04.268Z,101686.64
2018-12-29T14:01:32.439Z,101691.11
2018-12-29T14:04:00.754Z,101683.11
2018-12-29T14:06:28.756Z,101708.45
2018-12-29T14:08:57.065Z,101690.25
2018-12-29T14:11:25.210Z,101701.56
2018-12-29T14:13:53.238Z,101703.41
2018-12-29T14:16:21.300Z,101704.12
2018-12-29T14:18:49.438Z,101713.93
2018-12-29T14:21:17.567Z,101722.63
2018-12-29T14:23:45.663Z,101732.94
2018-12-29T14:26:13.649Z,101742.30
2018-12-29T14:28:41.794Z,101759.20
2018-12-29T14:31:09.792Z,101753.14
2018-12-29T14:33:37.852Z,101748.87
2018-12-29T14:36:06.481Z,101755.77
2018-12-29T14:38:34.515Z,101764.61
2018-12-29T14:41:02.494Z,101769.27
2018-12-29T14:45:58.224Z,101794.92
2018-12-29T14:48:26.609Z,101797.16
2018-12-29T14:50:54.576Z,101792.59
2018-12-29T14:53:22.641Z,101784.33
2018-12-29T14:55:50.665Z,101761.84
2018-12-29T14:58:18.831Z,101764.25
2018-12-29T15:00:47.596Z,101784.70
2018-12-29T15:03:15.783Z,101778.11
2018-12-29T15:05:43.927Z,101772.40
2018-12-29T15:08:12.065Z,101762.64
2018-12-29T15:10:40.150Z,101766.19
2018-12-29T15:13:08.947Z,101766.56
2018-12-29T15:15:37.584Z,101772.86
2018-12-29T15:18:07.731Z,101787.06
2018-12-29T15:20:36.483Z,101798.39
2018-12-29T15:23:05.068Z,101793.30
2018-12-29T15:25:33.950Z,101793.39
2018-12-29T15:28:01.971Z,101794.39
2018-12-29T15:30:30.022Z,101798.85
2018-12-29T15:32:58.039Z,101796.62
2018-12-29T15:35:26.160Z,101791.61
2018-12-29T15:37:54.526Z,101789.84
2018-12-29T15:40:22.560Z,101796.39
2018-12-29T15:42:51.829Z,101781.25
2018-12-29T15:45:20.456Z,101769.44
2018-12-29T15:47:48.560Z,101763.34
2018-12-29T15:50:16.595Z,101761.19
2018-12-29T15:52:44.640Z,101763.95
2018-12-29T15:55:12.740Z,101753.61
2018-12-29T15:57:40.771Z,101744.12
2018-12-29T16:00:09.026Z,101743.63
2018-12-29T16:02:37.128Z,101738.14
2018-12-29T16:05:05.349Z,101720.10
2018-12-29T16:07:33.779Z,101708.77
2018-12-29T16:10:01.812Z,101680.52
2018-12-29T16:12:30.272Z,101671.22
2018-12-29T16:14:58.549Z,101696.94
2018-12-29T16:17:26.573Z,101701.37
2018-12-29T16:19:55.199Z,101676.72
2018-12-29T16:22:23.170Z,101675.30
2018-12-29T16:24:51.202Z,101672.29
2018-12-29T16:27:19.609Z,101649.94
2018-12-29T16:29:47.625Z,101641.86
2018-12-29T16:32:15.703Z,101615.53
2018-12-29T16:34:43.816Z,101634.83
2018-12-29T16:37:11.918Z,101663.52
2018-12-29T16:39:40.530Z,101691.92
2018-12-29T16:42:09.248Z,101702.42
2018-12-29T16:44:37.627Z,101718.25
2018-12-29T16:47:05.831Z,101744.39
2018-12-29T16:49:34.391Z,101749.34
2018-12-29T16:52:02.501Z,101754.34
2018-12-29T16:54:30.689Z,101780.49
2018-12-29T16:56:58.838Z,101781.23
2018-12-29T16:59:27.319Z,101782.91
2018-12-29T17:01:55.598Z,101792.67
2018-12-29T17:04:23.925Z,101790.08
2018-12-29T17:06:51.912Z,101798.23
2018-12-29T17:09:20.713Z,101807.30
2018-12-29T17:11:52.465Z,101801.57
2018-12-29T17:14:18.885Z,101787.69
2018-12-29T17:16:46.963Z,101779.91
2018-12-29T17:19:15.118Z,101770.92
2018-12-29T17:21:43.438Z,101775.64
2018-12-29T17:24:11.918Z,101783.70
2018-12-29T17:26:40.137Z,101792.64
2018-12-29T17:29:08.295Z,101795.98
2018-12-29T17:31:36.634Z,101799.86
2018-12-29T17:34:04.708Z,101810.78
2018-12-29T17:36:32.748Z,101815.88
2018-12-29T17:39:01.113Z,101809.40
2018-12-29T17:41:29.320Z,101812.83
2018-12-29T17:43:57.465Z,101821.44
2018-12-29T17:46:25.908Z,101820.98
2018-12-29T17:48:54.375Z,101811.16
2018-12-29T17:51:22.649Z,101793.19
2018-12-29T17:53:50.929Z,101783.33
2018-12-29T17:56:19.275Z,101780.92
2018-12-29T17:58:47.276Z,101789.39
2018-12-29T18:01:15.626Z,101793.83
2018-12-29T18:03:44.305Z,101791.23
2018-12-29T18:06:12.349Z,101790.77
2018-12-29T18:08:41.826Z,101787.34
2018-12-29T18:11:10.115Z,101791.15
2018-12-29T18:13:38.653Z,101788.19
2018-12-29T18:16:06.756Z,101811.88
2018-12-29T18:18:35.424Z,101812.17
2018-12-29T18:21:03.822Z,101798.28
2018-12-29T18:23:32.503Z,101797.45
2018-12-29T18:26:00.646Z,101795.41
2018-12-29T18:28:29.392Z,101790.77
2018-12-29T18:30:57.643Z,101774.02
2018-12-29T18:33:26.515Z,101767.31
2018-12-29T18:35:54.924Z,101762.67
2018-12-29T18:38:23.137Z,101786.00
2018-12-29T18:40:51.802Z,101788.27
2018-12-29T18:43:19.845Z,101790.41
2018-12-29T18:45:47.897Z,101783.46
2018-12-29T18:48:15.958Z,101781.33
2018-12-29T18:50:44.497Z,101778.73
2018-12-29T18:53:12.599Z,101776.15
2018-12-29T18:55:40.726Z,101766.19
2018-12-29T18:58:11.002Z,101774.33
2018-12-29T19:00:39.167Z,101764.80
2018-12-29T19:03:07.271Z,101782.86
2018-12-29T19:05:35.376Z,101791.70
2018-12-29T19:08:03.853Z,101791.52
2018-12-29T19:10:32.162Z,101799.53
2018-12-29T19:13:00.358Z,101799.44
2018-12-29T19:15:28.539Z,101794.54
2018-12-29T19:17:57.092Z,101792.27
2018-12-29T19:20:26.010Z,101791.53
2018-12-29T19:22:54.041Z,101795.37
2018-12-29T19:25:22.071Z,101781.48
2018-12-29T19:27:50.100Z,101781.56
2018-12-29T19:30:18.615Z,101794.91
2018-12-29T19:32:47.123Z,101792.31
2018-12-29T19:35:15.367Z,101796.20
2018-12-29T19:37:44.007Z,101784.07
2018-12-29T19:40:12.163Z,101786.95
2018-12-29T19:42:40.902Z,101785.56
2018-12-29T19:45:09.039Z,101782.45
2018-12-29T19:47:37.116Z,101801.44
2018-12-29T19:50:05.703Z,101802.50
2018-12-29T19:52:33.983Z,101793.80
2018-12-29T19:55:01.968Z,101785.87
2018-12-29T19:57:31.114Z,101775.50
2018-12-29T19:59:59.214Z,101771.15
2018-12-29T20:02:27.732Z,101748.19
2018-12-29T20:04:56.138Z,101739.57
2018-12-29T20:07:24.492Z,101732.03
2018-12-29T20:09:52.673Z,101724.34
2018-12-29T20:12:20.930Z,101726.11
2018-12-29T20:14:49.114Z,101727.49
2018-12-29T20:17:17.686Z,101715.52
2018-12-29T20:19:45.754Z,101719.86
2018-12-29T20:22:15.509Z,101717.64
2018-12-29T20:24:46.493Z,101710.88
2018-12-29T20:27:14.883Z,101705.41
2018-12-29T20:29:43.085Z,101705.88
2018-12-29T20:32:11.710Z,101700.75
2018-12-29T20:34:40.239Z,101706.77
2018-12-29T20:37:08.910Z,101699.92
2018-12-29T20:39:36.967Z,101699.86
2018-12-29T20:42:05.193Z,101697.17
2018-12-29T20:44:33.347Z,101700.23
2018-12-29T20:47:01.769Z,101700.51
2018-12-29T20:49:30.396Z,101702.64
2018-12-29T20:51:58.616Z,101701.63
2018-12-29T20:54:26.847Z,101698.97
2018-12-29T20:56:54.981Z,101701.47
2018-12-29T20:59:23.405Z,101686.75
2018-12-29T21:01:51.917Z,101677.39
2018-12-29T21:04:20.056Z,101681.34
2018-12-29T21:06:48.126Z,101683.11
2018-12-29T21:09:16.590Z,101689.22
2018-12-29T21:11:44.683Z,101686.53
2018-12-29T21:14:13.192Z,101676.34
2018-12-29T21:16:41.559Z,101677.64
2018-12-29T21:19:09.614Z,101675.14
2018-12-29T21:21:37.780Z,101678.10
2018-12-29T21:24:12.224Z,101677.55
2018-12-29T21:26:37.071Z,101672.45
2018-12-29T21:29:06.443Z,101675.05
2018-12-29T21:31:34.429Z,101664.22
2018-12-29T21:34:02.862Z,101672.08
2018-12-29T21:36:30.928Z,101669.18
2018-12-29T21:38:58.959Z,101668.81
2018-12-29T21:41:27.310Z,101672.23
2018-12-29T21:43:55.295Z,101676.81
2018-12-29T21:46:23.840Z,101669.12
2018-12-29T21:48:51.992Z,101668.75
2018-12-29T21:51:20.065Z,101666.53
2018-12-29T21:53:48.123Z,101671.77
2018-12-29T21:56:16.672Z,101684.13
2018-12-29T21:58:45.138Z,101684.03
2018-12-29T22:01:13.803Z,101686.47
2018-12-29T22:03:42.179Z,101684.34
2018-12-29T22:06:11.529Z,101685.08
2018-12-29T22:08:39.874Z,101681.28
2018-12-29T22:11:09.466Z,101677.86
2018-12-29T22:13:37.681Z,101694.77
2018-12-29T22:16:07.466Z,101694.31
2018-12-29T22:18:37.839Z,101699.13
2018-12-29T22:21:05.953Z,101696.99
2018-12-29T22:23:34.698Z,101701.34
2018-12-29T22:26:02.801Z,101698.47
2018-12-29T22:28:30.864Z,101692.97
2018-12-29T22:30:58.909Z,101695.06
2018-12-29T22:33:26.928Z,101694.32
2018-12-29T22:35:54.991Z,101692.15
2018-12-29T22:38:24.253Z,101691.55
2018-12-29T22:40:53.433Z,101682.66
2018-12-29T22:43:21.855Z,101680.07
2018-12-29T22:45:49.971Z,101689.84
2018-12-29T22:48:17.956Z,101683.54
2018-12-29T22:50:46.287Z,101681.84
2018-12-29T22:53:14.286Z,101686.28
2018-12-29T22:55:42.338Z,101687.66
2018-12-29T22:58:11.941Z,101680.67
2018-12-29T23:00:42.962Z,101678.55
2018-12-29T23:03:12.045Z,101675.86
2018-12-29T23:05:40.128Z,101675.95
2018-12-29T23:08:08.232Z,101675.12
2018-12-29T23:10:37.766Z,101666.98
2018-12-29T23:13:06.092Z,101663.55
2018-12-29T23:15:34.201Z,101660.50
2018-12-29T23:18:02.210Z,101655.23
2018-12-29T23:20:30.867Z,101660.09
2018-12-29T23:22:58.897Z,101667.81
2018-12-29T23:25:27.246Z,101659.20
2018-12-29T23:27:55.250Z,101644.95
2018-12-29T23:30:23.314Z,101638.02
2018-12-29T23:32:51.897Z,101640.43
2018-12-29T23:35:20.234Z,101646.81
2018-12-29T23:37:48.278Z,101644.91
2018-12-29T23:40:16.316Z,101636.22
2018-12-29T23:42:44.453Z,101647.70
2018-12-29T23:45:12.619Z,101648.94
2018-12-29T23:47:40.942Z,101646.16
2018-12-29T23:50:09.838Z,101643.02
2018-12-29T23:52:38.265Z,101653.38
2018-12-29T23:55:06.436Z,101657.21
2018-12-29T23:57:34.865Z,101656.20
